CheckWX is a tool to help pilots better visualize weather data.  It is not intended as a substitute for an official pre-flight weather briefing.

00:51:42 UTC

CYOD METAR
CFB Cold Lake Airport
Cold Lake, Canada
Current

52 mins ago

CYOD 240000Z 06011KT 15SM SCT250 09/M02 A3020 RMK CI3 SLP249
Observed
Mar-24 @ 00:00 UTC
Wind
  • 060° at 11 KTS
Visibility
15 SM
Flight Rules
VFR
Cloud Levels
  • Scattered at 25,000' AGL
Temperature
C / 48°F
Dewpoint
-2°C / 28°F
Humidity
46%
Altimeter
30.2" Hg
Pressure
1024.9 hPa
Previous

2 hours ago

CYOD 232300Z 05011G16KT 15SM SCT250 10/M03 A3019 RMK CI3 SLP243
Observed
Mar-23 @ 23:00 UTC
Wind
  • 050° at 11 KTS
  • Gusting to 16 KTS
Visibility
15 SM
Flight Rules
VFR
Cloud Levels
  • Scattered at 25,000' AGL
Temperature
10°C / 50°F
Dewpoint
-3°C / 27°F
Humidity
40%
Altimeter
30.19" Hg
Pressure
1024.3 hPa
Previous

3 hours ago

CYOD 232200Z 04013G18KT 15SM SCT250 10/M03 A3016 RMK CI3 SLP237
Observed
Mar-23 @ 22:00 UTC
Wind
  • 040° at 13 KTS
  • Gusting to 18 KTS
Visibility
15 SM
Flight Rules
VFR
Cloud Levels
  • Scattered at 25,000' AGL
Temperature
10°C / 50°F
Dewpoint
-3°C / 27°F
Humidity
40%
Altimeter
30.16" Hg
Pressure
1023.7 hPa